createdAt,value
2023-02-15T00:03:06.497Z,39.53
2023-02-15T00:08:12.295Z,41.03
2023-02-15T00:13:16.866Z,36.65
2023-02-15T00:18:21.284Z,35.60
2023-02-15T00:23:29.212Z,37.42
2023-02-15T00:28:34.177Z,35.83
2023-02-15T00:33:39.662Z,34.60
2023-02-15T00:38:46.191Z,42.78
2023-02-15T00:43:50.872Z,72.25
2023-02-15T00:48:55.489Z,36.55
2023-02-15T00:54:02.719Z,31.65
2023-02-15T00:59:07.797Z,40.75
2023-02-15T01:04:12.193Z,39.22
2023-02-15T01:09:18.137Z,37.08
2023-02-15T01:19:27.529Z,36.63
2023-02-15T01:24:33.778Z,39.33
2023-02-15T01:29:41.520Z,38.58
2023-02-15T01:34:46.550Z,29.83
2023-02-15T01:39:52.706Z,31.40
2023-02-15T01:44:58.807Z,36.70
2023-02-15T01:50:11.210Z,42.47
2023-02-15T01:55:18.074Z,33.17
2023-02-15T02:00:24.173Z,34.22
2023-02-15T02:05:28.925Z,37.55
2023-02-15T02:10:34.968Z,41.30
2023-02-15T02:15:46.918Z,36.88
2023-02-15T02:21:38.451Z,43.83
2023-02-15T02:27:18.276Z,37.78
2023-02-15T02:33:03.771Z,31.73
2023-02-15T02:38:14.264Z,33.72
2023-02-15T02:43:41.810Z,43.55
2023-02-15T02:48:51.280Z,34.88
2023-02-15T02:54:03.783Z,39.72
2023-02-15T02:59:15.361Z,46.22
2023-02-15T03:04:25.889Z,46.15
2023-02-15T03:09:42.642Z,43.80
2023-02-15T03:14:52.018Z,33.33
2023-02-15T03:20:02.931Z,33.28
2023-02-15T03:25:17.455Z,47.00
2023-02-15T03:30:25.482Z,42.55
2023-02-15T03:35:40.362Z,40.92
2023-02-15T03:41:05.699Z,33.60
2023-02-15T03:46:20.489Z,33.58
2023-02-15T03:51:39.210Z,33.78
2023-02-15T03:57:05.332Z,38.47
2023-02-15T04:07:20.316Z,41.67
2023-02-15T04:17:30.004Z,33.38
2023-02-15T04:22:53.585Z,51.58
2023-02-15T04:27:59.875Z,36.87
2023-02-15T04:33:05.397Z,43.78
2023-02-15T04:38:11.224Z,31.08
2023-02-15T04:43:15.715Z,30.63
2023-02-15T04:48:20.512Z,35.33
2023-02-15T04:53:27.971Z,27.65
2023-02-15T04:58:32.865Z,33.05
2023-02-15T05:03:37.364Z,36.60
2023-02-15T05:08:43.337Z,37.67
2023-02-15T05:13:48.237Z,40.58
2023-02-15T05:18:53.683Z,51.45
2023-02-15T05:23:59.767Z,65.95
2023-02-15T05:29:04.276Z,34.55
2023-02-15T05:34:08.940Z,38.45
2023-02-15T05:39:17.864Z,39.65
2023-02-15T05:44:26.916Z,66.25
2023-02-15T05:49:32.475Z,75.50
2023-02-15T05:54:38.332Z,64.55
2023-02-15T05:59:43.258Z,51.03
2023-02-15T06:04:47.664Z,71.53
2023-02-15T06:09:53.560Z,46.95
2023-02-15T06:14:58.099Z,52.97
2023-02-15T06:20:02.607Z,42.65
2023-02-15T06:25:11.144Z,36.72
2023-02-15T06:30:16.595Z,35.42
2023-02-15T06:35:22.036Z,39.65
2023-02-15T06:40:27.935Z,49.35
2023-02-15T06:50:37.170Z,43.13
2023-02-15T06:55:43.262Z,39.13
2023-02-15T07:00:47.643Z,38.35
2023-02-15T07:05:57.193Z,56.45
2023-02-15T07:11:17.439Z,43.63
2023-02-15T07:16:22.292Z,64.50
2023-02-15T07:21:26.908Z,64.50
2023-02-15T07:26:33.964Z,36.38
2023-02-15T07:31:38.590Z,38.67
2023-02-15T07:36:45.163Z,45.75
2023-02-15T07:41:51.145Z,40.80
2023-02-15T07:46:56.580Z,46.25
2023-02-15T07:52:03.441Z,43.58
2023-02-15T07:57:09.746Z,34.65
2023-02-15T08:02:14.338Z,43.75
2023-02-15T08:07:19.165Z,37.33
2023-02-15T08:12:25.141Z,37.08
2023-02-15T08:17:29.809Z,35.38
2023-02-15T08:22:34.289Z,36.08
2023-02-15T08:27:40.200Z,40.03
2023-02-15T08:37:48.947Z,31.90
2023-02-15T08:42:54.879Z,36.78
2023-02-15T08:53:04.870Z,41.30
2023-02-15T08:58:11.259Z,30.50
2023-02-15T09:03:16.175Z,44.15
2023-02-15T09:08:21.236Z,33.60
2023-02-15T09:13:27.354Z,35.87
2023-02-15T09:18:33.254Z,30.08
2023-02-15T09:28:44.873Z,30.13
2023-02-15T09:33:52.960Z,27.83
2023-02-15T09:38:59.769Z,30.35
2023-02-15T09:44:16.790Z,32.42
2023-02-15T09:49:33.502Z,35.72
2023-02-15T09:55:09.093Z,32.60
2023-02-15T10:00:24.362Z,30.43
2023-02-15T10:05:40.397Z,32.40
2023-02-15T10:16:09.061Z,36.30
2023-02-15T10:21:23.244Z,34.38
2023-02-15T10:26:33.384Z,29.27
2023-02-15T10:31:49.881Z,33.20
2023-02-15T10:37:14.222Z,32.95
2023-02-15T10:42:28.711Z,30.00
2023-02-15T10:47:48.552Z,28.60
2023-02-15T10:53:06.823Z,36.97
2023-02-15T10:58:19.510Z,46.35
2023-02-15T11:03:46.438Z,59.00
2023-02-15T11:08:56.303Z,33.22
2023-02-15T11:14:04.961Z,35.75
2023-02-15T11:19:16.650Z,32.97
2023-02-15T11:24:22.781Z,36.53
2023-02-15T11:29:33.702Z,30.73
2023-02-15T11:34:50.745Z,35.92
2023-02-15T11:39:58.288Z,31.98
2023-02-15T11:45:11.164Z,43.70
2023-02-15T11:56:05.179Z,27.73
2023-02-15T12:01:17.738Z,48.90
2023-02-15T12:06:27.604Z,37.97
2023-02-15T12:11:39.394Z,40.35
2023-02-15T12:16:47.427Z,29.45
2023-02-15T12:21:55.203Z,33.88
2023-02-15T12:27:03.093Z,32.28
2023-02-15T12:32:12.332Z,28.67
2023-02-15T12:37:25.076Z,32.20
2023-02-15T12:42:43.075Z,31.35
2023-02-15T12:47:49.042Z,31.58
2023-02-15T12:53:09.781Z,30.67
2023-02-15T12:58:19.725Z,27.63
2023-02-15T13:03:27.114Z,28.33
2023-02-15T13:08:35.779Z,34.80
2023-02-15T13:13:53.035Z,27.77
2023-02-15T13:18:57.477Z,29.67
2023-02-15T13:24:07.600Z,27.58
2023-02-15T13:29:20.838Z,29.58
2023-02-15T13:34:28.522Z,27.63
2023-02-15T13:39:41.352Z,38.90
2023-02-15T13:45:16.843Z,27.27
2023-02-15T13:50:36.073Z,27.00
2023-02-15T13:55:46.459Z,26.80
2023-02-15T14:01:03.508Z,33.85
2023-02-15T14:06:39.070Z,34.60
2023-02-15T14:11:53.973Z,38.00
2023-02-15T14:17:07.408Z,34.17
2023-02-15T14:22:22.849Z,39.15
2023-02-15T14:27:43.921Z,32.47
2023-02-15T14:32:50.888Z,29.90
2023-02-15T14:38:02.454Z,31.08
2023-02-15T14:43:14.071Z,30.02
2023-02-15T14:48:26.998Z,36.30
2023-02-15T14:53:39.710Z,25.13
2023-02-15T14:59:01.520Z,44.22
2023-02-15T15:04:09.897Z,32.78
2023-02-15T15:09:21.526Z,30.80
2023-02-15T15:14:44.258Z,35.10
2023-02-15T15:20:14.717Z,35.42
2023-02-15T15:25:53.795Z,26.38
2023-02-15T15:31:04.159Z,29.27
2023-02-15T15:36:30.481Z,32.75
2023-02-15T15:41:43.877Z,34.70
2023-02-15T15:47:16.961Z,47.22
2023-02-15T15:52:23.739Z,40.22
2023-02-15T15:57:31.469Z,47.20
2023-02-15T16:02:37.284Z,44.47
2023-02-15T16:07:43.581Z,36.22
2023-02-15T16:12:51.381Z,51.35
2023-02-15T16:17:59.522Z,48.35
2023-02-15T16:23:28.427Z,55.55
2023-02-15T16:28:32.849Z,57.03
2023-02-15T16:33:40.722Z,62.40
2023-02-15T16:39:09.801Z,63.58
2023-02-15T16:44:19.662Z,71.63
2023-02-15T16:49:28.389Z,126.05
2023-02-15T16:54:33.573Z,77.90
2023-02-15T16:59:43.339Z,155.73
2023-02-15T17:05:08.485Z,107.70
2023-02-15T17:10:29.113Z,125.57
2023-02-15T17:15:36.267Z,103.72
2023-02-15T17:20:44.665Z,113.38
2023-02-15T17:25:50.644Z,115.00
2023-02-15T17:30:56.763Z,122.93
2023-02-15T17:36:09.917Z,117.70
2023-02-15T17:41:14.406Z,145.10
2023-02-15T17:46:22.844Z,129.35
2023-02-15T17:51:29.356Z,141.68
2023-02-15T17:56:34.105Z,143.73
2023-02-15T18:02:10.258Z,205.73
2023-02-15T18:07:41.048Z,145.77
2023-02-15T18:12:54.015Z,153.32
2023-02-15T18:18:06.248Z,155.70
2023-02-15T18:23:14.310Z,143.05
2023-02-15T18:28:18.847Z,154.60
2023-02-15T18:33:34.395Z,166.05
2023-02-15T18:43:45.109Z,161.30
2023-02-15T18:48:50.011Z,153.60
2023-02-15T18:53:56.117Z,155.15
2023-02-15T18:59:00.531Z,151.40
2023-02-15T19:04:04.935Z,156.55
2023-02-15T19:09:15.994Z,166.23
2023-02-15T19:14:28.855Z,167.65
2023-02-15T19:19:33.464Z,177.20
2023-02-15T19:24:42.296Z,175.07
2023-02-15T19:29:46.855Z,173.18
2023-02-15T19:34:51.288Z,161.13
2023-02-15T19:39:57.320Z,150.73
2023-02-15T19:50:08.287Z,148.90
2023-02-15T19:55:23.448Z,176.55
2023-02-15T20:00:30.050Z,232.18
2023-02-15T20:05:38.501Z,153.18
2023-02-15T20:10:45.504Z,149.80
2023-02-15T20:15:50.910Z,139.73
2023-02-15T20:20:56.704Z,155.63
2023-02-15T20:26:08.439Z,160.25
2023-02-15T20:31:16.671Z,164.85
2023-02-15T20:36:23.218Z,168.07
2023-02-15T20:41:39.216Z,155.98
2023-02-15T20:46:43.780Z,170.60
2023-02-15T20:51:48.494Z,151.35
2023-02-15T20:56:55.359Z,151.50
2023-02-15T21:02:02.368Z,146.30
2023-02-15T21:07:06.898Z,159.13
2023-02-15T21:12:15.299Z,164.27
2023-02-15T21:17:19.653Z,157.15
2023-02-15T21:22:24.894Z,163.15
2023-02-15T21:27:30.647Z,195.80
2023-02-15T21:32:35.783Z,174.10
2023-02-15T21:37:41.906Z,160.90
2023-02-15T21:43:05.008Z,164.55
2023-02-15T21:48:09.455Z,189.02
2023-02-15T21:53:17.991Z,162.90
2023-02-15T21:58:26.358Z,141.38
2023-02-15T22:03:34.396Z,149.73
2023-02-15T22:08:38.905Z,131.20
2023-02-15T22:13:46.062Z,119.88
2023-02-15T22:18:51.159Z,117.68
2023-02-15T22:23:55.531Z,103.68
2023-02-15T22:29:01.606Z,96.00
2023-02-15T22:34:06.312Z,100.03
2023-02-15T22:39:11.320Z,100.55
2023-02-15T22:44:21.337Z,83.40
2023-02-15T22:49:25.771Z,87.93
2023-02-15T22:54:30.182Z,84.85
2023-02-15T22:59:36.349Z,76.75
2023-02-15T23:04:40.697Z,70.15
2023-02-15T23:09:45.387Z,62.28
2023-02-15T23:14:51.614Z,66.55
2023-02-15T23:19:56.144Z,66.28
2023-02-15T23:25:00.412Z,64.70
2023-02-15T23:30:13.626Z,67.47
2023-02-15T23:35:19.927Z,61.50
2023-02-15T23:40:41.663Z,63.92
2023-02-15T23:45:47.927Z,58.63
2023-02-15T23:55:57.909Z,63.45
